If you wish to contribute or participate in the discussions about articles you are invited to join SKYbrary as a registered user

 Actions

Base Marambio

From SKYbrary Wiki

SAWB
Airport
ICAO: SAWB
Summary
Name Base Marambio
Region South America and Caribbean
Territory United Kingdom GB.gif
Location Seymour Island, Antarctica
Serving Base Marambio
Elevation 196 m
643.045 ft
643.045 ft196 m
Coordinates 64° 15' 0.34" S, 56° 38' 31.22" W
Runways
Designator Length Width Surface ROPS
6/24 1260 m4,133.858 ft
35 m114.829 ft
GRE /


METAR
Observation SAWB 122214Z 16010KT 4000 -SN SCT007 BKN025 M03/M05 Q1000
Station Marambio Base
Date/Time 12 December 2019 22:14:00
Wind direction 160°
Wind speed 10 kts
Lowest cloud amount scattered clouds
Temperature
Dew point
Humidity 86%
QNH 1000 hPa
Weather condition n/a

Aerodrome serving the local Argentinian Antarctic scientific community.

Climatology

Ice Cap climate (Köppen climate classification EF).

Maps

Terrain

Loading map...

Airport Layout

Loading map...


Accidents & Serious Incidents at or in vicinity of SAWB

None on SKYbrary